sensor_id;sensor_type;location;lat;lon;timestamp;pressure;altitude;pressure_sealevel;temperature
19102;BMP280;9683;49.028;12.064;2023-06-05T00:00:02;97360.69;;;21.97
19102;BMP280;9683;49.028;12.064;2023-06-05T00:02:32;97350.03;;;21.82
19102;BMP280;9683;49.028;12.064;2023-06-05T00:05:00;97348.44;;;21.81
19102;BMP280;9683;49.028;12.064;2023-06-05T00:07:27;97344.34;;;21.83
19102;BMP280;9683;49.028;12.064;2023-06-05T00:09:53;97342.56;;;21.74
19102;BMP280;9683;49.028;12.064;2023-06-05T00:12:19;97350.09;;;21.77
19102;BMP280;9683;49.028;12.064;2023-06-05T00:14:46;97350.41;;;21.75
19102;BMP280;9683;49.028;12.064;2023-06-05T00:17:12;97340.06;;;21.77
19102;BMP280;9683;49.028;12.064;2023-06-05T00:19:39;97346.59;;;21.76
19102;BMP280;9683;49.028;12.064;2023-06-05T00:22:07;97344.19;;;21.75
19102;BMP280;9683;49.028;12.064;2023-06-05T00:24:33;97346.16;;;21.69
19102;BMP280;9683;49.028;12.064;2023-06-05T00:27:00;97344.03;;;21.66
19102;BMP280;9683;49.028;12.064;2023-06-05T00:29:26;97353.53;;;21.64
19102;BMP280;9683;49.028;12.064;2023-06-05T00:31:53;97352.00;;;21.58
19102;BMP280;9683;49.028;12.064;2023-06-05T00:34:19;97350.81;;;21.45
19102;BMP280;9683;49.028;12.064;2023-06-05T00:36:46;97355.19;;;21.41
19102;BMP280;9683;49.028;12.064;2023-06-05T00:39:17;97354.16;;;21.37
19102;BMP280;9683;49.028;12.064;2023-06-05T00:41:44;97355.53;;;21.34
19102;BMP280;9683;49.028;12.064;2023-06-05T00:44:11;97354.50;;;21.30
19102;BMP280;9683;49.028;12.064;2023-06-05T00:46:38;97355.03;;;21.32
19102;BMP280;9683;49.028;12.064;2023-06-05T00:49:05;97359.63;;;21.32
19102;BMP280;9683;49.028;12.064;2023-06-05T00:51:32;97345.66;;;21.25
19102;BMP280;9683;49.028;12.064;2023-06-05T00:53:59;97359.41;;;21.28
19102;BMP280;9683;49.028;12.064;2023-06-05T00:56:27;97363.84;;;21.19
19102;BMP280;9683;49.028;12.064;2023-06-05T00:58:54;97338.28;;;21.01
19102;BMP280;9683;49.028;12.064;2023-06-05T01:01:23;97350.97;;;21.06
19102;BMP280;9683;49.028;12.064;2023-06-05T01:03:53;97346.19;;;20.98
19102;BMP280;9683;49.028;12.064;2023-06-05T01:06:23;97345.50;;;20.87
19102;BMP280;9683;49.028;12.064;2023-06-05T01:08:50;97348.25;;;20.82
19102;BMP280;9683;49.028;12.064;2023-06-05T01:11:21;97346.63;;;20.81
19102;BMP280;9683;49.028;12.064;2023-06-05T01:13:54;97341.72;;;20.83
19102;BMP280;9683;49.028;12.064;2023-06-05T01:16:23;97345.25;;;20.84
19102;BMP280;9683;49.028;12.064;2023-06-05T01:18:57;97349.28;;;20.86
19102;BMP280;9683;49.028;12.064;2023-06-05T01:21:27;97351.19;;;20.86
19102;BMP280;9683;49.028;12.064;2023-06-05T01:23:55;97332.91;;;20.73
19102;BMP280;9683;49.028;12.064;2023-06-05T01:26:27;97355.25;;;20.83
19102;BMP280;9683;49.028;12.064;2023-06-05T01:28:56;97345.78;;;20.86
19102;BMP280;9683;49.028;12.064;2023-06-05T01:31:24;97342.25;;;20.85
19102;BMP280;9683;49.028;12.064;2023-06-05T01:33:56;97334.72;;;20.82
19102;BMP280;9683;49.028;12.064;2023-06-05T01:36:23;97300.31;;;20.59
19102;BMP280;9683;49.028;12.064;2023-06-05T01:38:51;97333.69;;;20.78
19102;BMP280;9683;49.028;12.064;2023-06-05T01:41:21;97319.72;;;20.66
19102;BMP280;9683;49.028;12.064;2023-06-05T01:43:48;97320.81;;;20.65
19102;BMP280;9683;49.028;12.064;2023-06-05T01:46:22;97322.78;;;20.54
19102;BMP280;9683;49.028;12.064;2023-06-05T01:48:49;97329.06;;;20.50
19102;BMP280;9683;49.028;12.064;2023-06-05T01:51:16;97296.28;;;20.23
19102;BMP280;9683;49.028;12.064;2023-06-05T01:53:43;97330.78;;;20.41
19102;BMP280;9683;49.028;12.064;2023-06-05T01:56:14;97322.41;;;20.37
19102;BMP280;9683;49.028;12.064;2023-06-05T01:58:46;97314.66;;;20.26
19102;BMP280;9683;49.028;12.064;2023-06-05T02:01:12;97299.66;;;20.09
19102;BMP280;9683;49.028;12.064;2023-06-05T02:03:41;97300.19;;;20.11
19102;BMP280;9683;49.028;12.064;2023-06-05T02:06:13;97320.63;;;20.23
19102;BMP280;9683;49.028;12.064;2023-06-05T02:08:40;97326.53;;;20.25
19102;BMP280;9683;49.028;12.064;2023-06-05T02:11:07;97322.75;;;20.26
19102;BMP280;9683;49.028;12.064;2023-06-05T02:13:36;97318.69;;;20.28
19102;BMP280;9683;49.028;12.064;2023-06-05T02:16:06;97312.75;;;20.31
19102;BMP280;9683;49.028;12.064;2023-06-05T02:18:33;97302.78;;;20.22
19102;BMP280;9683;49.028;12.064;2023-06-05T02:21:02;97298.78;;;20.14
19102;BMP280;9683;49.028;12.064;2023-06-05T02:23:29;97302.13;;;20.01
19102;BMP280;9683;49.028;12.064;2023-06-05T02:25:57;97292.00;;;19.83
19102;BMP280;9683;49.028;12.064;2023-06-05T02:28:24;97280.06;;;19.50
19102;BMP280;9683;49.028;12.064;2023-06-05T02:30:52;97295.69;;;19.53
19102;BMP280;9683;49.028;12.064;2023-06-05T02:33:21;97298.16;;;19.49
19102;BMP280;9683;49.028;12.064;2023-06-05T02:35:48;97300.59;;;19.41
19102;BMP280;9683;49.028;12.064;2023-06-05T02:38:15;97305.00;;;19.32
19102;BMP280;9683;49.028;12.064;2023-06-05T02:40:41;97304.69;;;19.33
19102;BMP280;9683;49.028;12.064;2023-06-05T02:43:08;97304.19;;;19.31
19102;BMP280;9683;49.028;12.064;2023-06-05T02:45:36;97302.91;;;19.13
19102;BMP280;9683;49.028;12.064;2023-06-05T02:48:03;97295.38;;;19.00
19102;BMP280;9683;49.028;12.064;2023-06-05T02:50:31;97291.91;;;18.95
19102;BMP280;9683;49.028;12.064;2023-06-05T02:52:58;97294.06;;;18.98
19102;BMP280;9683;49.028;12.064;2023-06-05T02:55:24;97286.25;;;18.96
19102;BMP280;9683;49.028;12.064;2023-06-05T02:57:55;97290.00;;;18.95
19102;BMP280;9683;49.028;12.064;2023-06-05T03:00:23;97298.72;;;18.72
19102;BMP280;9683;49.028;12.064;2023-06-05T03:02:51;97297.66;;;18.58
19102;BMP280;9683;49.028;12.064;2023-06-05T03:05:18;97273.16;;;18.19
19102;BMP280;9683;49.028;12.064;2023-06-05T03:07:51;97297.94;;;18.36
19102;BMP280;9683;49.028;12.064;2023-06-05T03:10:20;97244.63;;;18.03
19102;BMP280;9683;49.028;12.064;2023-06-05T03:12:46;97291.72;;;18.41
19102;BMP280;9683;49.028;12.064;2023-06-05T03:15:13;97286.06;;;18.32
19102;BMP280;9683;49.028;12.064;2023-06-05T03:17:41;97285.81;;;18.28
19102;BMP280;9683;49.028;12.064;2023-06-05T03:20:09;97289.59;;;18.32
19102;BMP280;9683;49.028;12.064;2023-06-05T03:22:36;97296.63;;;18.13
19102;BMP280;9683;49.028;12.064;2023-06-05T03:25:05;97261.31;;;17.95
19102;BMP280;9683;49.028;12.064;2023-06-05T03:27:33;97275.88;;;18.09
19102;BMP280;9683;49.028;12.064;2023-06-05T03:30:00;97276.13;;;18.07
19102;BMP280;9683;49.028;12.064;2023-06-05T03:32:27;97289.06;;;18.20
19102;BMP280;9683;49.028;12.064;2023-06-05T03:34:53;97267.00;;;18.13
19102;BMP280;9683;49.028;12.064;2023-06-05T03:37:20;97259.97;;;18.02
19102;BMP280;9683;49.028;12.064;2023-06-05T03:39:47;97288.81;;;18.17
19102;BMP280;9683;49.028;12.064;2023-06-05T03:42:15;97290.94;;;18.10
19102;BMP280;9683;49.028;12.064;2023-06-05T03:44:41;97290.16;;;18.09
19102;BMP280;9683;49.028;12.064;2023-06-05T03:47:08;97292.28;;;17.97
19102;BMP280;9683;49.028;12.064;2023-06-05T03:49:34;97300.38;;;17.97
19102;BMP280;9683;49.028;12.064;2023-06-05T03:52:01;97302.00;;;17.98
19102;BMP280;9683;49.028;12.064;2023-06-05T03:54:29;97310.59;;;17.95
19102;BMP280;9683;49.028;12.064;2023-06-05T03:56:58;97308.72;;;17.85
19102;BMP280;9683;49.028;12.064;2023-06-05T03:59:27;97304.69;;;17.83
19102;BMP280;9683;49.028;12.064;2023-06-05T04:01:53;97313.00;;;17.81
19102;BMP280;9683;49.028;12.064;2023-06-05T04:04:20;97287.41;;;17.59
19102;BMP280;9683;49.028;12.064;2023-06-05T04:06:48;97279.00;;;17.55
19102;BMP280;9683;49.028;12.064;2023-06-05T04:09:15;97282.53;;;17.51
19102;BMP280;9683;49.028;12.064;2023-06-05T04:11:44;97314.38;;;17.79
19102;BMP280;9683;49.028;12.064;2023-06-05T04:14:11;97321.38;;;17.75
19102;BMP280;9683;49.028;12.064;2023-06-05T04:16:39;97295.16;;;17.55
19102;BMP280;9683;49.028;12.064;2023-06-05T04:19:09;97318.31;;;17.56
19102;BMP280;9683;49.028;12.064;2023-06-05T04:21:36;97328.78;;;17.42
19102;BMP280;9683;49.028;12.064;2023-06-05T04:24:03;97280.22;;;17.02
19102;BMP280;9683;49.028;12.064;2023-06-05T04:26:32;97327.63;;;17.23
19102;BMP280;9683;49.028;12.064;2023-06-05T04:28:59;97255.13;;;16.81
19102;BMP280;9683;49.028;12.064;2023-06-05T04:31:27;97325.44;;;17.10
19102;BMP280;9683;49.028;12.064;2023-06-05T04:33:56;97310.13;;;17.16
19102;BMP280;9683;49.028;12.064;2023-06-05T04:36:23;97317.44;;;17.30
19102;BMP280;9683;49.028;12.064;2023-06-05T04:38:50;97318.56;;;17.45
19102;BMP280;9683;49.028;12.064;2023-06-05T04:41:16;97324.78;;;17.50
19102;BMP280;9683;49.028;12.064;2023-06-05T04:43:43;97277.63;;;17.32
19102;BMP280;9683;49.028;12.064;2023-06-05T04:46:09;97314.34;;;17.59
19102;BMP280;9683;49.028;12.064;2023-06-05T04:48:36;97312.97;;;17.61
19102;BMP280;9683;49.028;12.064;2023-06-05T04:51:04;97273.88;;;17.38
19102;BMP280;9683;49.028;12.064;2023-06-05T04:53:30;97309.50;;;17.66
19102;BMP280;9683;49.028;12.064;2023-06-05T04:55:57;97311.34;;;17.60
19102;BMP280;9683;49.028;12.064;2023-06-05T04:58:27;97277.88;;;17.31
19102;BMP280;9683;49.028;12.064;2023-06-05T05:00:53;97314.81;;;17.51
19102;BMP280;9683;49.028;12.064;2023-06-05T05:03:30;97305.66;;;17.41
19102;BMP280;9683;49.028;12.064;2023-06-05T05:05:56;97306.75;;;17.46
19102;BMP280;9683;49.028;12.064;2023-06-05T05:08:24;97308.44;;;17.67
19102;BMP280;9683;49.028;12.064;2023-06-05T05:10:52;97308.97;;;17.74
19102;BMP280;9683;49.028;12.064;2023-06-05T05:13:19;97302.78;;;17.73
19102;BMP280;9683;49.028;12.064;2023-06-05T05:15:45;97310.06;;;17.78
19102;BMP280;9683;49.028;12.064;2023-06-05T05:18:12;97304.41;;;17.84
19102;BMP280;9683;49.028;12.064;2023-06-05T05:20:39;97278.03;;;17.71
19102;BMP280;9683;49.028;12.064;2023-06-05T05:23:05;97318.16;;;17.98
19102;BMP280;9683;49.028;12.064;2023-06-05T05:25:37;97306.59;;;17.93
19102;BMP280;9683;49.028;12.064;2023-06-05T05:28:04;97290.13;;;17.89
19102;BMP280;9683;49.028;12.064;2023-06-05T05:30:30;97309.00;;;18.04
19102;BMP280;9683;49.028;12.064;2023-06-05T05:32:58;97316.28;;;18.14
19102;BMP280;9683;49.028;12.064;2023-06-05T05:35:24;97321.41;;;18.20
19102;BMP280;9683;49.028;12.064;2023-06-05T05:37:51;97330.00;;;18.22
19102;BMP280;9683;49.028;12.064;2023-06-05T05:40:17;97327.34;;;18.17
19102;BMP280;9683;49.028;12.064;2023-06-05T05:42:45;97325.16;;;18.19
19102;BMP280;9683;49.028;12.064;2023-06-05T05:45:12;97313.06;;;18.17
19102;BMP280;9683;49.028;12.064;2023-06-05T05:47:38;97293.63;;;18.10
19102;BMP280;9683;49.028;12.064;2023-06-05T05:50:06;97298.22;;;18.24
19102;BMP280;9683;49.028;12.064;2023-06-05T05:52:33;97316.00;;;18.46
19102;BMP280;9683;49.028;12.064;2023-06-05T05:54:59;97302.00;;;18.33
19102;BMP280;9683;49.028;12.064;2023-06-05T05:57:28;97316.25;;;18.49
19102;BMP280;9683;49.028;12.064;2023-06-05T05:59:56;97324.63;;;18.58
19102;BMP280;9683;49.028;12.064;2023-06-05T06:02:22;97308.72;;;18.51
19102;BMP280;9683;49.028;12.064;2023-06-05T06:04:49;97304.94;;;18.67
19102;BMP280;9683;49.028;12.064;2023-06-05T06:07:15;97323.22;;;18.86
19102;BMP280;9683;49.028;12.064;2023-06-05T06:09:42;97306.50;;;18.94
19102;BMP280;9683;49.028;12.064;2023-06-05T06:12:10;97319.41;;;19.02
19102;BMP280;9683;49.028;12.064;2023-06-05T06:14:36;97320.75;;;19.04
19102;BMP280;9683;49.028;12.064;2023-06-05T06:17:04;97328.28;;;19.07
19102;BMP280;9683;49.028;12.064;2023-06-05T06:19:35;97315.84;;;19.11
19102;BMP280;9683;49.028;12.064;2023-06-05T06:22:02;97319.09;;;19.08
19102;BMP280;9683;49.028;12.064;2023-06-05T06:24:28;97290.56;;;18.97
19102;BMP280;9683;49.028;12.064;2023-06-05T06:26:55;97311.22;;;19.22
19102;BMP280;9683;49.028;12.064;2023-06-05T06:29:24;97316.84;;;19.36
19102;BMP280;9683;49.028;12.064;2023-06-05T06:31:52;97313.03;;;19.42
19102;BMP280;9683;49.028;12.064;2023-06-05T06:34:20;97245.69;;;19.11
19102;BMP280;9683;49.028;12.064;2023-06-05T06:36:47;97311.38;;;19.56
19102;BMP280;9683;49.028;12.064;2023-06-05T06:39:14;97323.16;;;19.70
19102;BMP280;9683;49.028;12.064;2023-06-05T06:41:41;97314.97;;;19.85
19102;BMP280;9683;49.028;12.064;2023-06-05T06:44:07;97307.31;;;19.97
19102;BMP280;9683;49.028;12.064;2023-06-05T06:46:34;97306.44;;;20.07
19102;BMP280;9683;49.028;12.064;2023-06-05T06:49:00;97328.16;;;20.26
19102;BMP280;9683;49.028;12.064;2023-06-05T06:51:28;97326.22;;;20.36
19102;BMP280;9683;49.028;12.064;2023-06-05T06:53:55;97328.00;;;20.46
19102;BMP280;9683;49.028;12.064;2023-06-05T06:56:21;97325.00;;;20.52
19102;BMP280;9683;49.028;12.064;2023-06-05T06:58:48;97325.47;;;20.59
19102;BMP280;9683;49.028;12.064;2023-06-05T07:01:15;97318.91;;;20.66
19102;BMP280;9683;49.028;12.064;2023-06-05T07:03:41;97320.47;;;20.72
19102;BMP280;9683;49.028;12.064;2023-06-05T07:06:09;97318.53;;;20.77
19102;BMP280;9683;49.028;12.064;2023-06-05T07:08:37;97319.28;;;20.83
19102;BMP280;9683;49.028;12.064;2023-06-05T07:11:04;97309.88;;;20.75
19102;BMP280;9683;49.028;12.064;2023-06-05T07:13:30;97313.63;;;20.79
19102;BMP280;9683;49.028;12.064;2023-06-05T07:15:57;97320.84;;;20.89
19102;BMP280;9683;49.028;12.064;2023-06-05T07:18:24;97319.16;;;20.93
19102;BMP280;9683;49.028;12.064;2023-06-05T07:20:51;97318.06;;;20.94
19102;BMP280;9683;49.028;12.064;2023-06-05T07:23:17;97296.13;;;20.72
19102;BMP280;9683;49.028;12.064;2023-06-05T07:25:45;97310.63;;;20.81
19102;BMP280;9683;49.028;12.064;2023-06-05T07:28:12;97312.75;;;20.84
19102;BMP280;9683;49.028;12.064;2023-06-05T07:30:40;97313.88;;;20.83
19102;BMP280;9683;49.028;12.064;2023-06-05T07:33:08;97316.50;;;20.88
19102;BMP280;9683;49.028;12.064;2023-06-05T07:35:36;97317.81;;;20.95
19102;BMP280;9683;49.028;12.064;2023-06-05T07:38:03;97324.16;;;21.04
19102;BMP280;9683;49.028;12.064;2023-06-05T07:40:29;97324.09;;;21.15
19102;BMP280;9683;49.028;12.064;2023-06-05T07:42:57;97312.91;;;21.21
19102;BMP280;9683;49.028;12.064;2023-06-05T07:45:24;97322.31;;;21.29
19102;BMP280;9683;49.028;12.064;2023-06-05T07:47:51;97319.38;;;21.25
19102;BMP280;9683;49.028;12.064;2023-06-05T07:50:17;97314.47;;;21.27
19102;BMP280;9683;49.028;12.064;2023-06-05T07:52:44;97290.47;;;21.21
19102;BMP280;9683;49.028;12.064;2023-06-05T07:55:10;97302.41;;;21.38
19102;BMP280;9683;49.028;12.064;2023-06-05T07:57:37;97316.63;;;21.49
19102;BMP280;9683;49.028;12.064;2023-06-05T08:00:06;97309.75;;;21.57
19102;BMP280;9683;49.028;12.064;2023-06-05T08:02:36;97301.03;;;21.60
19102;BMP280;9683;49.028;12.064;2023-06-05T08:05:04;97289.75;;;21.53
19102;BMP280;9683;49.028;12.064;2023-06-05T08:07:31;97293.63;;;21.65
19102;BMP280;9683;49.028;12.064;2023-06-05T08:09:58;97299.00;;;21.70
19102;BMP280;9683;49.028;12.064;2023-06-05T08:12:24;97292.97;;;21.73
19102;BMP280;9683;49.028;12.064;2023-06-05T08:14:51;97292.91;;;21.78
19102;BMP280;9683;49.028;12.064;2023-06-05T08:17:19;97296.84;;;21.86
19102;BMP280;9683;49.028;12.064;2023-06-05T08:19:45;97298.97;;;21.89
19102;BMP280;9683;49.028;12.064;2023-06-05T08:22:12;97281.13;;;21.88
19102;BMP280;9683;49.028;12.064;2023-06-05T08:24:39;97299.66;;;22.00
19102;BMP280;9683;49.028;12.064;2023-06-05T08:27:06;97292.56;;;22.04
19102;BMP280;9683;49.028;12.064;2023-06-05T08:29:33;97299.00;;;22.08
19102;BMP280;9683;49.028;12.064;2023-06-05T08:32:02;97302.72;;;22.12
19102;BMP280;9683;49.028;12.064;2023-06-05T08:34:30;97297.50;;;22.15
19102;BMP280;9683;49.028;12.064;2023-06-05T08:36:57;97290.69;;;22.18
19102;BMP280;9683;49.028;12.064;2023-06-05T08:39:24;97290.59;;;22.23
19102;BMP280;9683;49.028;12.064;2023-06-05T08:41:54;97294.31;;;22.27
19102;BMP280;9683;49.028;12.064;2023-06-05T08:44:25;97252.69;;;22.04
19102;BMP280;9683;49.028;12.064;2023-06-05T08:46:53;97290.94;;;22.35
19102;BMP280;9683;49.028;12.064;2023-06-05T08:49:26;97297.41;;;22.39
19102;BMP280;9683;49.028;12.064;2023-06-05T08:51:57;97278.69;;;22.37
19102;BMP280;9683;49.028;12.064;2023-06-05T08:54:28;97275.91;;;22.43
19102;BMP280;9683;49.028;12.064;2023-06-05T08:56:57;97259.59;;;22.29
19102;BMP280;9683;49.028;12.064;2023-06-05T08:59:24;97279.81;;;22.50
19102;BMP280;9683;49.028;12.064;2023-06-05T09:01:51;97273.38;;;22.46
19102;BMP280;9683;49.028;12.064;2023-06-05T09:04:18;97289.19;;;22.58
19102;BMP280;9683;49.028;12.064;2023-06-05T09:06:45;97283.16;;;22.61
19102;BMP280;9683;49.028;12.064;2023-06-05T09:09:15;97289.31;;;22.66
19102;BMP280;9683;49.028;12.064;2023-06-05T09:11:41;97247.34;;;22.45
19102;BMP280;9683;49.028;12.064;2023-06-05T09:14:08;97245.66;;;22.49
19102;BMP280;9683;49.028;12.064;2023-06-05T09:16:37;97269.63;;;22.74
19102;BMP280;9683;49.028;12.064;2023-06-05T09:19:05;97277.06;;;22.69
19102;BMP280;9683;49.028;12.064;2023-06-05T09:21:32;97275.91;;;22.56
19102;BMP280;9683;49.028;12.064;2023-06-05T09:24:12;97268.38;;;22.53
19102;BMP280;9683;49.028;12.064;2023-06-05T09:26:57;97267.75;;;22.56
19102;BMP280;9683;49.028;12.064;2023-06-05T09:29:25;97279.47;;;22.70
19102;BMP280;9683;49.028;12.064;2023-06-05T09:31:54;97271.97;;;22.81
19102;BMP280;9683;49.028;12.064;2023-06-05T09:34:22;97273.97;;;22.89
19102;BMP280;9683;49.028;12.064;2023-06-05T09:40:11;97277.09;;;23.10
19102;BMP280;9683;49.028;12.064;2023-06-05T09:42:41;97262.00;;;23.17
19102;BMP280;9683;49.028;12.064;2023-06-05T09:45:08;97268.41;;;23.21
19102;BMP280;9683;49.028;12.064;2023-06-05T09:47:35;97269.22;;;23.22
19102;BMP280;9683;49.028;12.064;2023-06-05T09:50:02;97263.88;;;23.30
19102;BMP280;9683;49.028;12.064;2023-06-05T09:52:29;97268.59;;;23.39
19102;BMP280;9683;49.028;12.064;2023-06-05T09:54:57;97268.09;;;23.37
19102;BMP280;9683;49.028;12.064;2023-06-05T09:57:26;97257.03;;;23.33
19102;BMP280;9683;49.028;12.064;2023-06-05T09:59:55;97258.22;;;23.41
19102;BMP280;9683;49.028;12.064;2023-06-05T10:02:24;97256.53;;;23.45
19102;BMP280;9683;49.028;12.064;2023-06-05T10:04:55;97259.31;;;23.53
19102;BMP280;9683;49.028;12.064;2023-06-05T10:07:23;97265.34;;;23.64
19102;BMP280;9683;49.028;12.064;2023-06-05T10:09:50;97269.75;;;23.73
19102;BMP280;9683;49.028;12.064;2023-06-05T10:12:17;97264.50;;;23.77
19102;BMP280;9683;49.028;12.064;2023-06-05T10:14:44;97260.72;;;23.87
19102;BMP280;9683;49.028;12.064;2023-06-05T10:17:13;97257.06;;;23.91
19102;BMP280;9683;49.028;12.064;2023-06-05T10:19:41;97271.66;;;23.95
19102;BMP280;9683;49.028;12.064;2023-06-05T10:22:09;97263.22;;;23.97
19102;BMP280;9683;49.028;12.064;2023-06-05T10:24:38;97255.69;;;23.94
19102;BMP280;9683;49.028;12.064;2023-06-05T10:27:24;97265.81;;;24.02
19102;BMP280;9683;49.028;12.064;2023-06-05T10:30:12;97258.00;;;24.09
19102;BMP280;9683;49.028;12.064;2023-06-05T10:32:58;97259.22;;;24.16
19102;BMP280;9683;49.028;12.064;2023-06-05T10:35:37;97261.50;;;24.23
19102;BMP280;9683;49.028;12.064;2023-06-05T10:38:15;97257.53;;;24.29
19102;BMP280;9683;49.028;12.064;2023-06-05T10:40:43;97258.34;;;24.30
19102;BMP280;9683;49.028;12.064;2023-06-05T10:43:32;97262.50;;;24.27
19102;BMP280;9683;49.028;12.064;2023-06-05T10:46:00;97254.81;;;24.29
19102;BMP280;9683;49.028;12.064;2023-06-05T10:51:35;97256.28;;;24.35
19102;BMP280;9683;49.028;12.064;2023-06-05T10:54:05;97255.38;;;24.40
19102;BMP280;9683;49.028;12.064;2023-06-05T10:56:56;97244.53;;;24.48
19102;BMP280;9683;49.028;12.064;2023-06-05T10:59:26;97250.81;;;24.57
19102;BMP280;9683;49.028;12.064;2023-06-05T11:02:22;97247.50;;;24.69
19102;BMP280;9683;49.028;12.064;2023-06-05T11:05:10;97244.81;;;24.78
19102;BMP280;9683;49.028;12.064;2023-06-05T11:07:41;97240.53;;;24.85
19102;BMP280;9683;49.028;12.064;2023-06-05T11:10:12;97249.06;;;24.92
19102;BMP280;9683;49.028;12.064;2023-06-05T11:12:58;97234.88;;;24.82
19102;BMP280;9683;49.028;12.064;2023-06-05T11:15:39;97245.72;;;24.95
19102;BMP280;9683;49.028;12.064;2023-06-05T11:18:28;97245.53;;;25.00
19102;BMP280;9683;49.028;12.064;2023-06-05T11:20:55;97238.69;;;25.03
19102;BMP280;9683;49.028;12.064;2023-06-05T11:23:24;97235.31;;;25.06
19102;BMP280;9683;49.028;12.064;2023-06-05T11:25:53;97230.19;;;25.13
19102;BMP280;9683;49.028;12.064;2023-06-05T11:28:42;97219.50;;;25.25
19102;BMP280;9683;49.028;12.064;2023-06-05T11:31:09;97225.91;;;25.29
19102;BMP280;9683;49.028;12.064;2023-06-05T11:33:36;97232.50;;;25.37
19102;BMP280;9683;49.028;12.064;2023-06-05T11:36:05;97225.28;;;25.41
19102;BMP280;9683;49.028;12.064;2023-06-05T11:38:35;97219.19;;;25.44
19102;BMP280;9683;49.028;12.064;2023-06-05T11:41:06;97227.06;;;25.45
19102;BMP280;9683;49.028;12.064;2023-06-05T11:43:35;97227.38;;;25.44
19102;BMP280;9683;49.028;12.064;2023-06-05T11:46:07;97232.00;;;25.43
19102;BMP280;9683;49.028;12.064;2023-06-05T11:48:33;97227.06;;;25.45
19102;BMP280;9683;49.028;12.064;2023-06-05T11:51:01;97219.50;;;25.42
19102;BMP280;9683;49.028;12.064;2023-06-05T11:53:30;97226.25;;;25.45
19102;BMP280;9683;49.028;12.064;2023-06-05T11:55:58;97229.78;;;25.45
19102;BMP280;9683;49.028;12.064;2023-06-05T11:58:33;97233.63;;;25.44
19102;BMP280;9683;49.028;12.064;2023-06-05T12:01:05;97219.84;;;25.41
19102;BMP280;9683;49.028;12.064;2023-06-05T12:03:32;97226.25;;;25.45
19102;BMP280;9683;49.028;12.064;2023-06-05T12:06:00;97215.97;;;25.33
19102;BMP280;9683;49.028;12.064;2023-06-05T12:08:29;97234.56;;;25.40
19102;BMP280;9683;49.028;12.064;2023-06-05T12:10:59;97230.41;;;25.42
19102;BMP280;9683;49.028;12.064;2023-06-05T12:13:44;97219.34;;;25.39
19102;BMP280;9683;49.028;12.064;2023-06-05T12:16:11;97224.78;;;25.39
19102;BMP280;9683;49.028;12.064;2023-06-05T12:18:37;97226.69;;;25.38
19102;BMP280;9683;49.028;12.064;2023-06-05T12:21:04;97227.34;;;25.35
19102;BMP280;9683;49.028;12.064;2023-06-05T12:23:32;97220.63;;;25.33
19102;BMP280;9683;49.028;12.064;2023-06-05T12:26:00;97226.25;;;25.36
19102;BMP280;9683;49.028;12.064;2023-06-05T12:28:31;97217.75;;;25.29
19102;BMP280;9683;49.028;12.064;2023-06-05T12:31:00;97228.81;;;25.33
19102;BMP280;9683;49.028;12.064;2023-06-05T12:33:27;97216.28;;;25.32
19102;BMP280;9683;49.028;12.064;2023-06-05T12:36:04;97218.03;;;25.28
19102;BMP280;9683;49.028;12.064;2023-06-05T12:38:36;97225.72;;;25.26
19102;BMP280;9683;49.028;12.064;2023-06-05T12:41:06;97231.69;;;25.28
19102;BMP280;9683;49.028;12.064;2023-06-05T12:43:33;97237.78;;;25.25
19102;BMP280;9683;49.028;12.064;2023-06-05T12:45:59;97235.06;;;25.25
19102;BMP280;9683;49.028;12.064;2023-06-05T12:48:26;97237.78;;;25.25
19102;BMP280;9683;49.028;12.064;2023-06-05T12:50:53;97225.56;;;25.22
19102;BMP280;9683;49.028;12.064;2023-06-05T12:53:19;97228.78;;;25.24
19102;BMP280;9683;49.028;12.064;2023-06-05T12:55:46;97238.91;;;25.32
19102;BMP280;9683;49.028;12.064;2023-06-05T12:58:14;97225.41;;;25.27
19102;BMP280;9683;49.028;12.064;2023-06-05T13:00:41;97217.25;;;25.27
19102;BMP280;9683;49.028;12.064;2023-06-05T13:03:09;97208.75;;;25.29
19102;BMP280;9683;49.028;12.064;2023-06-05T13:05:36;97223.19;;;25.46
19102;BMP280;9683;49.028;12.064;2023-06-05T13:08:02;97212.78;;;25.48
19102;BMP280;9683;49.028;12.064;2023-06-05T13:10:29;97221.66;;;25.63
19102;BMP280;9683;49.028;12.064;2023-06-05T13:12:55;97199.97;;;25.66
19102;BMP280;9683;49.028;12.064;2023-06-05T13:15:23;97219.06;;;25.83
19102;BMP280;9683;49.028;12.064;2023-06-05T13:17:50;97210.53;;;25.93
19102;BMP280;9683;49.028;12.064;2023-06-05T13:20:16;97212.44;;;26.01
19102;BMP280;9683;49.028;12.064;2023-06-05T13:22:43;97213.06;;;26.16
19102;BMP280;9683;49.028;12.064;2023-06-05T13:25:10;97214.69;;;26.25
19102;BMP280;9683;49.028;12.064;2023-06-05T13:27:37;97216.91;;;26.32
19102;BMP280;9683;49.028;12.064;2023-06-05T13:30:04;97178.09;;;26.09
19102;BMP280;9683;49.028;12.064;2023-06-05T13:32:34;97218.00;;;26.39
19102;BMP280;9683;49.028;12.064;2023-06-05T13:35:00;97220.09;;;26.42
19102;BMP280;9683;49.028;12.064;2023-06-05T13:37:27;97217.34;;;26.51
19102;BMP280;9683;49.028;12.064;2023-06-05T13:39:53;97216.66;;;26.63
19102;BMP280;9683;49.028;12.064;2023-06-05T13:42:20;97217.59;;;26.67
19102;BMP280;9683;49.028;12.064;2023-06-05T13:44:46;97203.91;;;26.75
19102;BMP280;9683;49.028;12.064;2023-06-05T13:47:13;97211.44;;;26.87
19102;BMP280;9683;49.028;12.064;2023-06-05T13:49:41;97214.25;;;26.99
19102;BMP280;9683;49.028;12.064;2023-06-05T13:52:07;97223.22;;;27.08
19102;BMP280;9683;49.028;12.064;2023-06-05T13:54:34;97214.03;;;27.13
19102;BMP280;9683;49.028;12.064;2023-06-05T13:57:01;97231.31;;;27.25
19102;BMP280;9683;49.028;12.064;2023-06-05T13:59:28;97206.38;;;27.27
19102;BMP280;9683;49.028;12.064;2023-06-05T14:01:54;97210.25;;;27.26
19102;BMP280;9683;49.028;12.064;2023-06-05T14:04:21;97234.66;;;27.31
19102;BMP280;9683;49.028;12.064;2023-06-05T14:06:49;97226.72;;;27.38
19102;BMP280;9683;49.028;12.064;2023-06-05T14:09:15;97218.34;;;27.43
19102;BMP280;9683;49.028;12.064;2023-06-05T14:11:43;97212.03;;;27.51
19102;BMP280;9683;49.028;12.064;2023-06-05T14:14:09;97195.31;;;27.44
19102;BMP280;9683;49.028;12.064;2023-06-05T14:16:36;97225.91;;;27.67
19102;BMP280;9683;49.028;12.064;2023-06-05T14:19:03;97219.91;;;27.73
19102;BMP280;9683;49.028;12.064;2023-06-05T14:21:29;97219.03;;;27.82